sensor_id;sensor_type;location;lat;lon;timestamp;pressure;altitude;pressure_sealevel;temperature;humidity
46614;BME280;32338;50.430;6.806;2022-11-20T00:00:17;65619.06;;;1.83;100.00
46614;BME280;32338;50.430;6.806;2022-11-20T00:02:44;65632.69;;;1.98;100.00
46614;BME280;32338;50.430;6.806;2022-11-20T00:05:12;65642.19;;;2.06;100.00
46614;BME280;32338;50.430;6.806;2022-11-20T00:07:39;65655.97;;;2.17;100.00
46614;BME280;32338;50.430;6.806;2022-11-20T00:10:06;65650.03;;;2.14;100.00
46614;BME280;32338;50.430;6.806;2022-11-20T00:12:32;65653.03;;;2.19;100.00
46614;BME280;32338;50.430;6.806;2022-11-20T00:14:59;65654.63;;;2.13;100.00
46614;BME280;32338;50.430;6.806;2022-11-20T00:17:26;65643.88;;;2.08;100.00
46614;BME280;32338;50.430;6.806;2022-11-20T00:19:52;65665.69;;;2.28;100.00
46614;BME280;32338;50.430;6.806;2022-11-20T00:22:21;65661.97;;;2.27;100.00
46614;BME280;32338;50.430;6.806;2022-11-20T00:24:47;65660.66;;;2.23;100.00
46614;BME280;32338;50.430;6.806;2022-11-20T00:27:14;65647.22;;;2.11;100.00
46614;BME280;32338;50.430;6.806;2022-11-20T00:29:41;65657.44;;;2.16;100.00
46614;BME280;32338;50.430;6.806;2022-11-20T00:32:07;65644.97;;;2.09;100.00
46614;BME280;32338;50.430;6.806;2022-11-20T00:34:34;65647.78;;;2.11;100.00
46614;BME280;32338;50.430;6.806;2022-11-20T00:37:01;65657.06;;;2.18;100.00
46614;BME280;32338;50.430;6.806;2022-11-20T00:39:29;65650.16;;;2.09;100.00
46614;BME280;32338;50.430;6.806;2022-11-20T00:41:55;65631.59;;;1.97;100.00
46614;BME280;32338;50.430;6.806;2022-11-20T00:44:22;65637.72;;;2.02;100.00
46614;BME280;32338;50.430;6.806;2022-11-20T00:46:49;65650.72;;;2.09;100.00
46614;BME280;32338;50.430;6.806;2022-11-20T00:49:15;65653.19;;;2.14;100.00
46614;BME280;32338;50.430;6.806;2022-11-20T00:51:42;65663.22;;;2.23;100.00
46614;BME280;32338;50.430;6.806;2022-11-20T00:54:08;65663.56;;;2.21;100.00
46614;BME280;32338;50.430;6.806;2022-11-20T00:56:37;65659.53;;;2.22;100.00
46614;BME280;32338;50.430;6.806;2022-11-20T00:59:04;65665.69;;;2.28;100.00
46614;BME280;32338;50.430;6.806;2022-11-20T01:01:31;65668.47;;;2.31;100.00
46614;BME280;32338;50.430;6.806;2022-11-20T01:03:59;65661.78;;;2.24;100.00
46614;BME280;32338;50.430;6.806;2022-11-20T01:06:27;65644.28;;;2.13;100.00
46614;BME280;32338;50.430;6.806;2022-11-20T01:08:56;65653.94;;;2.17;100.00
46614;BME280;32338;50.430;6.806;2022-11-20T01:11:25;65671.97;;;2.29;100.00
46614;BME280;32338;50.430;6.806;2022-11-20T01:13:54;65664.91;;;2.25;100.00
46614;BME280;32338;50.430;6.806;2022-11-20T01:16:23;65656.53;;;2.17;100.00
46614;BME280;32338;50.430;6.806;2022-11-20T01:18:51;65641.97;;;2.04;100.00
46614;BME280;32338;50.430;6.806;2022-11-20T01:21:20;65634.38;;;1.99;100.00
46614;BME280;32338;50.430;6.806;2022-11-20T01:23:48;65652.41;;;2.11;100.00
46614;BME280;32338;50.430;6.806;2022-11-20T01:26:17;65638.28;;;2.03;100.00
46614;BME280;32338;50.430;6.806;2022-11-20T01:28:44;65643.50;;;2.10;100.00
46614;BME280;32338;50.430;6.806;2022-11-20T01:31:14;65650.03;;;2.14;100.00
46614;BME280;32338;50.430;6.806;2022-11-20T01:33:42;65641.09;;;2.05;100.00
46614;BME280;32338;50.430;6.806;2022-11-20T01:36:10;65647.00;;;2.08;100.00
46614;BME280;32338;50.430;6.806;2022-11-20T01:38:37;65652.25;;;2.16;100.00
46614;BME280;32338;50.430;6.806;2022-11-20T01:41:05;65654.06;;;2.13;100.00
46614;BME280;32338;50.430;6.806;2022-11-20T01:43:33;65657.84;;;2.21;100.00
46614;BME280;32338;50.430;6.806;2022-11-20T01:46:02;65652.41;;;2.11;100.00
46614;BME280;32338;50.430;6.806;2022-11-20T01:48:35;65639.75;;;2.02;100.00
46614;BME280;32338;50.430;6.806;2022-11-20T01:51:04;65637.72;;;2.02;100.00
46614;BME280;32338;50.430;6.806;2022-11-20T01:53:35;65638.28;;;2.03;100.00
46614;BME280;32338;50.430;6.806;2022-11-20T01:56:05;65619.97;;;1.81;100.00
46614;BME280;32338;50.430;6.806;2022-11-20T01:58:38;65606.97;;;1.74;100.00
46614;BME280;32338;50.430;6.806;2022-11-20T02:01:07;65600.06;;;1.65;100.00
46614;BME280;32338;50.430;6.806;2022-11-20T02:03:35;65614.78;;;1.81;100.00
46614;BME280;32338;50.430;6.806;2022-11-20T02:06:06;65611.78;;;1.76;100.00
46614;BME280;32338;50.430;6.806;2022-11-20T02:08:37;65614.78;;;1.81;100.00
46614;BME280;32338;50.430;6.806;2022-11-20T02:11:04;65638.28;;;2.03;100.00
46614;BME280;32338;50.430;6.806;2022-11-20T02:13:31;65636.03;;;2.01;100.00
46614;BME280;32338;50.430;6.806;2022-11-20T02:16:11;65643.88;;;2.08;100.00
46614;BME280;32338;50.430;6.806;2022-11-20T02:18:39;65654.63;;;2.13;100.00
46614;BME280;32338;50.430;6.806;2022-11-20T02:21:12;65661.34;;;2.19;100.00
46614;BME280;32338;50.430;6.806;2022-11-20T02:24:01;65648.56;;;2.15;100.00
46614;BME280;32338;50.430;6.806;2022-11-20T02:26:30;65641.28;;;2.08;100.00
46614;BME280;32338;50.430;6.806;2022-11-20T02:28:58;65638.97;;;1.99;100.00
46614;BME280;32338;50.430;6.806;2022-11-20T02:31:26;65635.47;;;2.00;100.00
46614;BME280;32338;50.430;6.806;2022-11-20T02:33:56;65638.28;;;2.03;100.00
46614;BME280;32338;50.430;6.806;2022-11-20T02:36:24;65656.88;;;2.15;100.00
46614;BME280;32338;50.430;6.806;2022-11-20T02:38:54;65648.13;;;2.09;100.00
46614;BME280;32338;50.430;6.806;2022-11-20T02:41:20;65644.44;;;2.08;100.00
46614;BME280;32338;50.430;6.806;2022-11-20T02:43:47;65649.81;;;2.11;100.00
46614;BME280;32338;50.430;6.806;2022-11-20T02:46:14;65651.13;;;2.15;100.00
46614;BME280;32338;50.430;6.806;2022-11-20T02:48:40;65653.38;;;2.17;100.00
46614;BME280;32338;50.430;6.806;2022-11-20T02:51:07;65662.69;;;2.23;100.00
46614;BME280;32338;50.430;6.806;2022-11-20T02:53:34;65649.47;;;2.13;100.00
46614;BME280;32338;50.430;6.806;2022-11-20T02:56:02;65652.25;;;2.16;100.00
46614;BME280;32338;50.430;6.806;2022-11-20T02:58:28;65669.94;;;2.30;100.00
46614;BME280;32338;50.430;6.806;2022-11-20T03:00:55;65666.78;;;2.29;100.00
46614;BME280;32338;50.430;6.806;2022-11-20T03:03:22;65673.09;;;2.30;100.00
46614;BME280;32338;50.430;6.806;2022-11-20T03:05:48;65659.53;;;2.22;100.00
46614;BME280;32338;50.430;6.806;2022-11-20T03:08:15;65656.53;;;2.17;100.00
46614;BME280;32338;50.430;6.806;2022-11-20T03:10:42;65659.09;;;2.17;100.00
46614;BME280;32338;50.430;6.806;2022-11-20T03:13:10;65666.78;;;2.29;100.00
46614;BME280;32338;50.430;6.806;2022-11-20T03:15:37;65661.00;;;2.21;100.00
46614;BME280;32338;50.430;6.806;2022-11-20T03:18:04;65664.50;;;2.20;100.00
46614;BME280;32338;50.430;6.806;2022-11-20T03:20:32;65663.03;;;2.21;100.00
46614;BME280;32338;50.430;6.806;2022-11-20T03:22:59;65659.31;;;2.20;100.00
46614;BME280;32338;50.430;6.806;2022-11-20T03:25:26;65667.69;;;2.27;100.00
46614;BME280;32338;50.430;6.806;2022-11-20T03:27:53;65667.16;;;2.27;100.00
46614;BME280;32338;50.430;6.806;2022-11-20T03:30:22;65661.78;;;2.24;100.00
46614;BME280;32338;50.430;6.806;2022-11-20T03:32:48;65668.06;;;2.25;100.00
46614;BME280;32338;50.430;6.806;2022-11-20T03:35:15;65657.28;;;2.20;100.00
46614;BME280;32338;50.430;6.806;2022-11-20T03:37:42;65666.56;;;2.26;100.00
46614;BME280;32338;50.430;6.806;2022-11-20T03:40:11;65664.91;;;2.25;100.00
46614;BME280;32338;50.430;6.806;2022-11-20T03:42:37;65667.16;;;2.27;100.00
46614;BME280;32338;50.430;6.806;2022-11-20T03:45:14;65660.09;;;2.23;100.00
46614;BME280;32338;50.430;6.806;2022-11-20T03:47:42;65661.34;;;2.19;100.00
46614;BME280;32338;50.430;6.806;2022-11-20T03:50:10;65659.31;;;2.20;100.00
46614;BME280;32338;50.430;6.806;2022-11-20T03:52:37;65650.59;;;2.14;100.00
46614;BME280;32338;50.430;6.806;2022-11-20T03:55:04;65649.47;;;2.13;100.00
46614;BME280;32338;50.430;6.806;2022-11-20T03:57:31;65650.72;;;2.09;100.00
46614;BME280;32338;50.430;6.806;2022-11-20T03:59:58;65653.53;;;2.12;100.00
46614;BME280;32338;50.430;6.806;2022-11-20T04:02:24;65658.41;;;2.21;100.00
46614;BME280;32338;50.430;6.806;2022-11-20T04:04:52;65671.63;;;2.31;100.00
46614;BME280;32338;50.430;6.806;2022-11-20T04:07:19;65670.84;;;2.28;100.00
46614;BME280;32338;50.430;6.806;2022-11-20T04:09:46;65669.72;;;2.27;100.00
46614;BME280;32338;50.430;6.806;2022-11-20T04:12:13;65668.06;;;2.25;100.00
46614;BME280;32338;50.430;6.806;2022-11-20T04:14:40;65656.19;;;2.19;100.00
46614;BME280;32338;50.430;6.806;2022-11-20T04:17:06;65669.94;;;2.30;100.00
46614;BME280;32338;50.430;6.806;2022-11-20T04:19:33;65667.69;;;2.27;100.00
46614;BME280;32338;50.430;6.806;2022-11-20T04:22:01;65680.38;;;2.37;100.00
46614;BME280;32338;50.430;6.806;2022-11-20T04:24:28;65669.03;;;2.31;100.00
46614;BME280;32338;50.430;6.806;2022-11-20T04:26:54;65671.06;;;2.31;100.00
46614;BME280;32338;50.430;6.806;2022-11-20T04:29:21;65672.53;;;2.30;100.00
46614;BME280;32338;50.430;6.806;2022-11-20T04:31:48;65662.44;;;2.20;100.00
46614;BME280;32338;50.430;6.806;2022-11-20T04:34:15;65663.22;;;2.23;100.00
46614;BME280;32338;50.430;6.806;2022-11-20T04:36:41;65671.41;;;2.29;100.00
46614;BME280;32338;50.430;6.806;2022-11-20T04:39:14;65659.19;;;2.24;100.00
46614;BME280;32338;50.430;6.806;2022-11-20T04:41:41;65659.53;;;2.22;100.00
46614;BME280;32338;50.430;6.806;2022-11-20T04:44:08;65659.72;;;2.25;100.00
46614;BME280;32338;50.430;6.806;2022-11-20T04:46:36;65667.50;;;2.25;100.00
46614;BME280;32338;50.430;6.806;2022-11-20T04:49:03;65651.34;;;2.17;100.00
46614;BME280;32338;50.430;6.806;2022-11-20T04:51:30;65661.41;;;2.26;100.00
46614;BME280;32338;50.430;6.806;2022-11-20T04:53:57;65667.50;;;2.25;100.00
46614;BME280;32338;50.430;6.806;2022-11-20T04:56:25;65660.09;;;2.23;100.00
46614;BME280;32338;50.430;6.806;2022-11-20T04:58:52;65657.84;;;2.21;100.00
46614;BME280;32338;50.430;6.806;2022-11-20T05:01:20;65658.56;;;2.17;100.00
46614;BME280;32338;50.430;6.806;2022-11-20T05:03:48;65648.13;;;2.09;100.00
46614;BME280;32338;50.430;6.806;2022-11-20T05:06:18;65645.34;;;2.07;100.00
46614;BME280;32338;50.430;6.806;2022-11-20T05:08:45;65656.31;;;2.15;100.00
46614;BME280;32338;50.430;6.806;2022-11-20T05:11:13;65667.50;;;2.25;100.00
46614;BME280;32338;50.430;6.806;2022-11-20T05:13:42;65663.09;;;2.28;100.00
46614;BME280;32338;50.430;6.806;2022-11-20T05:16:10;65671.28;;;2.33;100.00
46614;BME280;32338;50.430;6.806;2022-11-20T05:18:38;65662.88;;;2.25;100.00
46614;BME280;32338;50.430;6.806;2022-11-20T05:21:05;65673.50;;;2.35;100.00
46614;BME280;32338;50.430;6.806;2022-11-20T05:23:32;65680.38;;;2.37;100.00
46614;BME280;32338;50.430;6.806;2022-11-20T05:26:00;65652.81;;;2.16;100.00
46614;BME280;32338;50.430;6.806;2022-11-20T05:28:28;65645.69;;;2.05;100.00
46614;BME280;32338;50.430;6.806;2022-11-20T05:31:04;65640.09;;;2.00;100.00
46614;BME280;32338;50.430;6.806;2022-11-20T05:33:32;65665.69;;;2.28;100.00
46614;BME280;32338;50.430;6.806;2022-11-20T05:35:59;65679.44;;;2.38;100.00
46614;BME280;32338;50.430;6.806;2022-11-20T05:38:25;65678.88;;;2.38;100.00
46614;BME280;32338;50.430;6.806;2022-11-20T05:40:52;65679.09;;;2.40;100.00
46614;BME280;32338;50.430;6.806;2022-11-20T05:43:19;65674.97;;;2.34;100.00
46614;BME280;32338;50.430;6.806;2022-11-20T05:45:52;65672.19;;;2.32;100.00
46614;BME280;32338;50.430;6.806;2022-11-20T05:48:20;65669.81;;;2.34;100.00
46614;BME280;32338;50.430;6.806;2022-11-20T05:50:47;65685.59;;;2.44;100.00
46614;BME280;32338;50.430;6.806;2022-11-20T05:53:14;65672.75;;;2.32;100.00
46614;BME280;32338;50.430;6.806;2022-11-20T05:55:40;65670.69;;;2.33;100.00
46614;BME280;32338;50.430;6.806;2022-11-20T05:58:07;65668.47;;;2.31;100.00
46614;BME280;32338;50.430;6.806;2022-11-20T06:00:34;65680.78;;;2.42;100.00
46614;BME280;32338;50.430;6.806;2022-11-20T06:03:00;65685.25;;;2.46;100.00
46614;BME280;32338;50.430;6.806;2022-11-20T06:05:29;65687.63;;;2.43;100.00
46614;BME280;32338;50.430;6.806;2022-11-20T06:07:55;65689.88;;;2.46;100.00
46614;BME280;32338;50.430;6.806;2022-11-20T06:10:22;65678.66;;;2.35;100.00
46614;BME280;32338;50.430;6.806;2022-11-20T06:12:48;65677.22;;;2.36;100.00
46614;BME280;32338;50.430;6.806;2022-11-20T06:15:15;65670.50;;;2.30;100.00
46614;BME280;32338;50.430;6.806;2022-11-20T06:17:42;65667.69;;;2.27;100.00
46614;BME280;32338;50.430;6.806;2022-11-20T06:20:09;65654.28;;;2.15;100.00
46614;BME280;32338;50.430;6.806;2022-11-20T06:22:37;65666.03;;;2.26;100.00
46614;BME280;32338;50.430;6.806;2022-11-20T06:25:04;65664.56;;;2.27;100.00
46614;BME280;32338;50.430;6.806;2022-11-20T06:27:31;65652.25;;;2.16;100.00
46614;BME280;32338;50.430;6.806;2022-11-20T06:29:58;65643.88;;;2.08;100.00
46614;BME280;32338;50.430;6.806;2022-11-20T06:32:24;65650.16;;;2.09;100.00
46614;BME280;32338;50.430;6.806;2022-11-20T06:34:51;65648.47;;;2.07;100.00
46614;BME280;32338;50.430;6.806;2022-11-20T06:37:17;65636.25;;;2.03;100.00
46614;BME280;32338;50.430;6.806;2022-11-20T06:39:45;65637.50;;;2.00;100.00
46614;BME280;32338;50.430;6.806;2022-11-20T06:42:12;65631.91;;;1.94;100.00
46614;BME280;32338;50.430;6.806;2022-11-20T06:44:39;65621.84;;;1.85;100.00
46614;BME280;32338;50.430;6.806;2022-11-20T06:47:05;65613.69;;;1.80;100.00
46614;BME280;32338;50.430;6.806;2022-11-20T06:49:32;65610.66;;;1.75;100.00
46614;BME280;32338;50.430;6.806;2022-11-20T06:51:59;65605.88;;;1.73;100.00
46614;BME280;32338;50.430;6.806;2022-11-20T06:54:26;65596.38;;;1.64;100.00
46614;BME280;32338;50.430;6.806;2022-11-20T06:56:54;65595.03;;;1.60;100.00
46614;BME280;32338;50.430;6.806;2022-11-20T06:59:20;65589.66;;;1.58;100.00
46614;BME280;32338;50.430;6.806;2022-11-20T07:01:47;65587.97;;;1.56;100.00
46614;BME280;32338;50.430;6.806;2022-11-20T07:04:14;65586.88;;;1.55;100.00
46614;BME280;32338;50.430;6.806;2022-11-20T07:06:41;65585.94;;;1.57;100.00
46614;BME280;32338;50.430;6.806;2022-11-20T07:09:07;65584.84;;;1.56;100.00
46614;BME280;32338;50.430;6.806;2022-11-20T07:11:34;65593.13;;;1.56;100.00
46614;BME280;32338;50.430;6.806;2022-11-20T07:14:02;65590.91;;;1.54;100.00
46614;BME280;32338;50.430;6.806;2022-11-20T07:16:31;65581.25;;;1.50;100.00
46614;BME280;32338;50.430;6.806;2022-11-20T07:18:58;65579.03;;;1.48;100.00
46614;BME280;32338;50.430;6.806;2022-11-20T07:21:25;65579.94;;;1.47;100.00
46614;BME280;32338;50.430;6.806;2022-11-20T07:23:51;65583.09;;;1.47;100.00
46614;BME280;32338;50.430;6.806;2022-11-20T07:26:18;65585.31;;;1.49;100.00
46614;BME280;32338;50.430;6.806;2022-11-20T07:28:45;65571.41;;;1.43;100.00
46614;BME280;32338;50.430;6.806;2022-11-20T07:31:13;65571.22;;;1.41;100.00
46614;BME280;32338;50.430;6.806;2022-11-20T07:33:40;65567.88;;;1.38;100.00
46614;BME280;32338;50.430;6.806;2022-11-20T07:36:07;65571.22;;;1.41;100.00
46614;BME280;32338;50.430;6.806;2022-11-20T07:38:34;65577.13;;;1.44;100.00
46614;BME280;32338;50.430;6.806;2022-11-20T07:41:00;65577.13;;;1.44;100.00
46614;BME280;32338;50.430;6.806;2022-11-20T07:43:27;65590.91;;;1.54;100.00
46614;BME280;32338;50.430;6.806;2022-11-20T07:45:55;65590.00;;;1.56;100.00
46614;BME280;32338;50.430;6.806;2022-11-20T07:48:23;65592.59;;;1.56;100.00
46614;BME280;32338;50.430;6.806;2022-11-20T07:50:52;65589.09;;;1.57;100.00
46614;BME280;32338;50.430;6.806;2022-11-20T07:53:19;65588.53;;;1.57;100.00
46614;BME280;32338;50.430;6.806;2022-11-20T07:55:47;65587.22;;;1.53;100.00
46614;BME280;32338;50.430;6.806;2022-11-20T07:58:14;65588.88;;;1.55;100.00
46614;BME280;32338;50.430;6.806;2022-11-20T08:00:40;65591.88;;;1.60;100.00
46614;BME280;32338;50.430;6.806;2022-11-20T08:03:07;65607.88;;;1.72;100.00
46614;BME280;32338;50.430;6.806;2022-11-20T08:05:35;65601.94;;;1.69;100.00
46614;BME280;32338;50.430;6.806;2022-11-20T08:08:02;65596.91;;;1.65;100.00
46614;BME280;32338;50.430;6.806;2022-11-20T08:10:29;65610.00;;;1.79;100.00
46614;BME280;32338;50.430;6.806;2022-11-20T08:12:56;65622.41;;;1.86;100.00
46614;BME280;32338;50.430;6.806;2022-11-20T08:15:40;65620.75;;;1.84;100.00
46614;BME280;32338;50.430;6.806;2022-11-20T08:18:08;65632.69;;;1.98;100.00
46614;BME280;32338;50.430;6.806;2022-11-20T08:20:37;65634.59;;;2.02;100.00
46614;BME280;32338;50.430;6.806;2022-11-20T08:23:05;65634.72;;;1.97;100.00
46614;BME280;32338;50.430;6.806;2022-11-20T08:25:33;65637.31;;;1.97;100.00
46614;BME280;32338;50.430;6.806;2022-11-20T08:28:03;65642.34;;;2.02;100.00
46614;BME280;32338;50.430;6.806;2022-11-20T08:30:30;65655.97;;;2.17;100.00
46614;BME280;32338;50.430;6.806;2022-11-20T08:33:01;65661.19;;;2.24;100.00
46614;BME280;32338;50.430;6.806;2022-11-20T08:35:27;65660.09;;;2.23;100.00
46614;BME280;32338;50.430;6.806;2022-11-20T08:37:56;65660.44;;;2.21;100.00
46614;BME280;32338;50.430;6.806;2022-11-20T08:40:22;65670.28;;;2.27;100.00
46614;BME280;32338;50.430;6.806;2022-11-20T08:42:50;65658.75;;;2.19;100.00
46614;BME280;32338;50.430;6.806;2022-11-20T08:45:18;65666.94;;;2.24;100.00
46614;BME280;32338;50.430;6.806;2022-11-20T08:47:45;65666.22;;;2.29;100.00
46614;BME280;32338;50.430;6.806;2022-11-20T08:50:13;65669.72;;;2.27;100.00
46614;BME280;32338;50.430;6.806;2022-11-20T08:52:41;65662.69;;;2.23;100.00
46614;BME280;32338;50.430;6.806;2022-11-20T08:55:10;65668.06;;;2.25;100.00
46614;BME280;32338;50.430;6.806;2022-11-20T08:57:37;65680.38;;;2.37;100.00
46614;BME280;32338;50.430;6.806;2022-11-20T09:00:05;65671.81;;;2.34;100.00
46614;BME280;32338;50.430;6.806;2022-11-20T09:02:32;65672.94;;;2.35;100.00
46614;BME280;32338;50.430;6.806;2022-11-20T09:04:59;65666.22;;;2.29;100.00
46614;BME280;32338;50.430;6.806;2022-11-20T09:07:27;65672.88;;;2.27;100.00
46614;BME280;32338;50.430;6.806;2022-11-20T09:09:54;65684.91;;;2.48;100.00
46614;BME280;32338;50.430;6.806;2022-11-20T09:12:22;65683.00;;;2.44;100.00
46614;BME280;32338;50.430;6.806;2022-11-20T09:14:49;65671.28;;;2.33;100.00
46614;BME280;32338;50.430;6.806;2022-11-20T09:17:15;65667.69;;;2.27;100.00
46614;BME280;32338;50.430;6.806;2022-11-20T09:19:42;65674.78;;;2.32;100.00
46614;BME280;32338;50.430;6.806;2022-11-20T09:22:09;65686.16;;;2.45;100.00
46614;BME280;32338;50.430;6.806;2022-11-20T09:24:35;65676.88;;;2.38;100.00
46614;BME280;32338;50.430;6.806;2022-11-20T09:27:04;65684.28;;;2.40;100.00
46614;BME280;32338;50.430;6.806;2022-11-20T09:29:32;65694.56;;;2.52;100.00
46614;BME280;32338;50.430;6.806;2022-11-20T09:31:58;65703.34;;;2.65;100.00
46614;BME280;32338;50.430;6.806;2022-11-20T09:34:25;65715.03;;;2.69;100.00
46614;BME280;32338;50.430;6.806;2022-11-20T09:36:52;65712.09;;;2.71;100.00
46614;BME280;32338;50.430;6.806;2022-11-20T09:39:18;65721.97;;;2.78;100.00
46614;BME280;32338;50.430;6.806;2022-11-20T09:42:04;65709.84;;;2.69;100.00
46614;BME280;32338;50.430;6.806;2022-11-20T09:44:56;65711.53;;;2.70;100.00
46614;BME280;32338;50.430;6.806;2022-11-20T09:47:36;65726.78;;;2.80;100.00
46614;BME280;32338;50.430;6.806;2022-11-20T09:50:19;65737.28;;;2.94;100.00
46614;BME280;32338;50.430;6.806;2022-11-20T09:52:58;65742.09;;;2.96;100.00
46614;BME280;32338;50.430;6.806;2022-11-20T09:55:31;65747.16;;;3.01;100.00
46614;BME280;32338;50.430;6.806;2022-11-20T09:57:58;65746.78;;;3.03;100.00
46614;BME280;32338;50.430;6.806;2022-11-20T10:00:28;65758.34;;;3.11;100.00
46614;BME280;32338;50.430;6.806;2022-11-20T10:03:00;65765.47;;;3.22;100.00
46614;BME280;32338;50.430;6.806;2022-11-20T10:05:30;65766.38;;;3.21;100.00
46614;BME280;32338;50.430;6.806;2022-11-20T10:08:08;65760.44;;;3.18;100.00
46614;BME280;32338;50.430;6.806;2022-11-20T10:10:42;65760.44;;;3.18;100.00
46614;BME280;32338;50.430;6.806;2022-11-20T10:13:20;65770.31;;;3.24;100.00
46614;BME280;32338;50.430;6.806;2022-11-20T10:16:00;65780.94;;;3.34;100.00
46614;BME280;32338;50.430;6.806;2022-11-20T10:18:39;65784.28;;;3.37;100.00
46614;BME280;32338;50.430;6.806;2022-11-20T10:21:18;65789.34;;;3.42;100.00
46614;BME280;32338;50.430;6.806;2022-11-20T10:24:12;65820.28;;;3.66;100.00
46614;BME280;32338;50.430;6.806;2022-11-20T10:26:54;65810.56;;;3.54;100.00
46614;BME280;32338;50.430;6.806;2022-11-20T10:29:29;65805.00;;;3.56;100.00
46614;BME280;32338;50.430;6.806;2022-11-20T10:32:02;65797.72;;;3.50;100.00
46614;BME280;32338;50.430;6.806;2022-11-20T10:34:44;65799.97;;;3.52;100.00
46614;BME280;32338;50.430;6.806;2022-11-20T10:37:17;65805.91;;;3.55;100.00
46614;BME280;32338;50.430;6.806;2022-11-20T10:39:50;65808.00;;;3.62;100.00
46614;BME280;32338;50.430;6.806;2022-11-20T10:42:24;65814.09;;;3.60;100.00
46614;BME280;32338;50.430;6.806;2022-11-20T10:44:58;65814.69;;;3.61;100.00
46614;BME280;32338;50.430;6.806;2022-11-20T10:47:30;65837.28;;;3.84;100.00
46614;BME280;32338;50.430;6.806;2022-11-20T10:50:02;65831.13;;;3.78;100.00
46614;BME280;32338;50.430;6.806;2022-11-20T10:52:34;65826.06;;;3.73;100.00
46614;BME280;32338;50.430;6.806;2022-11-20T10:55:13;65813.81;;;3.69;100.00
46614;BME280;32338;50.430;6.806;2022-11-20T10:57:53;65824.03;;;3.74;100.00
46614;BME280;32338;50.430;6.806;2022-11-20T11:00:21;65825.72;;;3.76;100.00
46614;BME280;32338;50.430;6.806;2022-11-20T11:02:50;65834.69;;;3.84;100.00
46614;BME280;32338;50.430;6.806;2022-11-20T11:05:25;65833.56;;;3.83;100.00
46614;BME280;32338;50.430;6.806;2022-11-20T11:07:55;65829.63;;;3.79;100.00
46614;BME280;32338;50.430;6.806;2022-11-20T11:10:27;65838.94;;;3.85;100.00
46614;BME280;32338;50.430;6.806;2022-11-20T11:12:58;65864.50;;;4.06;100.00
46614;BME280;32338;50.430;6.806;2022-11-20T11:15:27;65877.97;;;4.19;100.00
46614;BME280;32338;50.430;6.806;2022-11-20T11:17:56;65875.78;;;4.24;100.00
46614;BME280;32338;50.430;6.806;2022-11-20T11:20:24;65883.97;;;4.29;100.00
46614;BME280;32338;50.430;6.806;2022-11-20T11:22:53;65887.34;;;4.32;100.00
46614;BME280;32338;50.430;6.806;2022-11-20T11:25:26;65894.63;;;4.39;100.00
46614;BME280;32338;50.430;6.806;2022-11-20T11:28:00;65892.72;;;4.35;100.00
46614;BME280;32338;50.430;6.806;2022-11-20T11:30:28;65889.94;;;4.32;100.00
46614;BME280;32338;50.430;6.806;2022-11-20T11:33:10;65889.00;;;4.34;100.00
46614;BME280;32338;50.430;6.806;2022-11-20T11:35:44;65884.53;;;4.30;100.00
46614;BME280;32338;50.430;6.806;2022-11-20T11:38:14;65876.34;;;4.25;100.00
46614;BME280;32338;50.430;6.806;2022-11-20T11:40:41;65880.03;;;4.26;100.00
46614;BME280;32338;50.430;6.806;2022-11-20T11:43:18;65895.41;;;4.42;100.00
46614;BME280;32338;50.430;6.806;2022-11-20T11:46:26;65894.97;;;4.37;100.00
46614;BME280;32338;50.430;6.806;2022-11-20T11:48:57;65893.84;;;4.36;100.00
46614;BME280;32338;50.430;6.806;2022-11-20T11:51:26;65890.13;;;4.35;100.00
46614;BME280;32338;50.430;6.806;2022-11-20T11:53:56;65894.41;;;4.36;100.00
46614;BME280;32338;50.430;6.806;2022-11-20T11:56:25;65900.22;;;4.44;100.00
46614;BME280;32338;50.430;6.806;2022-11-20T11:58:56;65915.00;;;4.60;100.00
46614;BME280;32338;50.430;6.806;2022-11-20T12:01:29;65908.06;;;4.51;100.00
46614;BME280;32338;50.430;6.806;2022-11-20T12:04:04;65915.91;;;4.59;100.00
46614;BME280;32338;50.430;6.806;2022-11-20T12:06:36;65923.19;;;4.65;100.00
46614;BME280;32338;50.430;6.806;2022-11-20T12:09:09;65939.44;;;4.80;100.00
46614;BME280;32338;50.430;6.806;2022-11-20T12:11:42;65936.25;;;4.73;100.00
46614;BME280;32338;50.430;6.806;2022-11-20T12:14:14;65931.03;;;4.73;100.00
46614;BME280;32338;50.430;6.806;2022-11-20T12:16:45;65927.69;;;4.69;100.00
46614;BME280;32338;50.430;6.806;2022-11-20T12:19:14;65934.41;;;4.76;100.00
46614;BME280;32338;50.430;6.806;2022-11-20T12:21:52;65950.66;;;4.91;100.00
46614;BME280;32338;50.430;6.806;2022-11-20T12:24:36;65944.28;;;4.82;100.00
46614;BME280;32338;50.430;6.806;2022-11-20T12:27:21;65934.78;;;4.74;100.00
46614;BME280;32338;50.430;6.806;2022-11-20T12:29:56;65930.13;;;4.74;100.00
46614;BME280;32338;50.430;6.806;2022-11-20T12:33:05;65927.69;;;4.69;100.00
46614;BME280;32338;50.430;6.806;2022-11-20T12:35:44;65930.50;;;4.72;100.00
46614;BME280;32338;50.430;6.806;2022-11-20T12:38:31;65925.09;;;4.69;100.00
46614;BME280;32338;50.430;6.806;2022-11-20T12:41:10;65929.38;;;4.71;100.00
46614;BME280;32338;50.430;6.806;2022-11-20T12:44:06;65934.19;;;4.73;100.00
46614;BME280;32338;50.430;6.806;2022-11-20T12:47:04;65928.59;;;4.68;100.00
46614;BME280;32338;50.430;6.806;2022-11-20T12:49:38;65923.19;;;4.65;100.00
46614;BME280;32338;50.430;6.806;2022-11-20T12:52:20;65924.31;;;4.66;100.00
46614;BME280;32338;50.430;6.806;2022-11-20T12:55:13;65932.16;;;4.74;100.00
46614;BME280;32338;50.430;6.806;2022-11-20T12:57:46;65934.97;;;4.76;100.00
46614;BME280;32338;50.430;6.806;2022-11-20T13:00:18;65931.97;;;4.71;100.00
46614;BME280;32338;50.430;6.806;2022-11-20T13:03:02;65934.19;;;4.73;100.00
46614;BME280;32338;50.430;6.806;2022-11-20T13:05:37;65929.38;;;4.71;100.00
46614;BME280;32338;50.430;6.806;2022-11-20T13:08:15;65918.72;;;4.61;100.00
46614;BME280;32338;50.430;6.806;2022-11-20T13:10:49;65918.72;;;4.61;100.00
46614;BME280;32338;50.430;6.806;2022-11-20T13:13:22;65923.00;;;4.63;100.00